Time;durP1;ratioP1;P1;durP2;ratioP2;P2;SDS_P1;SDS_P2;PMS_P1;PMS_P2;Temp;Humidity;BMP_temperature;BMP_pressure;BME280_temperature;BME280_humidity;BME280_pressure;Samples;Min_cycle;Max_cycle;Signal;HPM_P1;HPM_P2
2021/03/07 00:01:08;;;;;;;0.30;0.30;;;1.40;99.90;;;;;;5032297;28;20607;-83
2021/03/07 00:03:34;;;;;;;0.10;0.10;;;1.30;99.90;;;;;;5029984;28;20594;-84
2021/03/07 00:06:00;;;;;;;0.37;0.37;;;1.30;99.90;;;;;;5031678;28;20188;-84
2021/03/07 00:08:25;;;;;;;0.03;0.03;;;1.40;99.90;;;;;;5032677;28;20214;-84
2021/03/07 00:10:51;;;;;;;0.10;0.10;;;1.40;99.90;;;;;;5031506;28;20183;-83
2021/03/07 00:13:16;;;;;;;0.83;0.20;;;1.40;99.90;;;;;;5032272;28;20618;-83
2021/03/07 00:15:42;;;;;;;0.20;0.20;;;1.50;99.90;;;;;;5029915;28;20269;-84
2021/03/07 00:18:08;;;;;;;0.50;0.30;;;1.60;99.90;;;;;;5031211;28;20193;-83
2021/03/07 00:20:34;;;;;;;0.20;0.20;;;1.60;99.90;;;;;;5028089;28;20190;-82
2021/03/07 00:23:00;;;;;;;0.10;0.10;;;1.60;99.90;;;;;;5032222;28;20286;-83
2021/03/07 00:25:25;;;;;;;0.23;0.23;;;1.60;99.90;;;;;;5030676;28;20319;-84
2021/03/07 00:27:51;;;;;;;0.10;0.10;;;1.60;99.90;;;;;;5031818;28;20211;-84
2021/03/07 00:30:18;;;;;;;0.53;0.30;;;1.60;99.90;;;;;;5025406;28;20258;-83
2021/03/07 00:32:44;;;;;;;0.10;0.10;;;1.60;99.90;;;;;;5030693;28;20757;-84
2021/03/07 00:35:11;;;;;;;0.37;0.37;;;1.50;99.90;;;;;;5030196;28;20669;-84
2021/03/07 00:37:37;;;;;;;0.50;0.43;;;1.40;99.90;;;;;;5030671;28;20213;-83
2021/03/07 00:40:07;;;;;;;0.50;0.50;;;1.40;99.90;;;;;;5029870;28;20791;-84
2021/03/07 00:42:32;;;;;;;0.53;0.53;;;1.40;99.90;;;;;;5030815;28;20293;-84
2021/03/07 00:44:58;;;;;;;0.30;0.20;;;1.40;99.90;;;;;;5029788;28;20342;-83
2021/03/07 00:47:24;;;;;;;0.20;0.20;;;1.30;99.90;;;;;;5047376;28;20262;-83
2021/03/07 00:49:50;;;;;;;0.40;0.27;;;1.30;99.90;;;;;;5030870;28;20193;-84
2021/03/07 00:52:15;;;;;;;0.10;0.10;;;1.30;99.90;;;;;;5030480;28;20253;-83
2021/03/07 00:54:41;;;;;;;0.30;0.30;;;1.30;99.90;;;;;;5030557;28;20207;-83
2021/03/07 00:57:06;;;;;;;0.13;0.13;;;1.20;99.90;;;;;;5029900;28;20187;-83
2021/03/07 00:59:32;;;;;;;0.10;0.10;;;1.20;99.90;;;;;;5031732;28;20182;-83
2021/03/07 01:01:58;;;;;;;0.30;0.30;;;1.20;99.90;;;;;;5030027;28;20210;-82
2021/03/07 01:04:23;;;;;;;0.30;0.30;;;1.10;99.90;;;;;;5030204;28;20182;-82
2021/03/07 01:06:49;;;;;;;0.37;0.37;;;1.10;99.90;;;;;;5046505;28;20198;-83
2021/03/07 01:09:14;;;;;;;0.47;0.47;;;1.00;99.90;;;;;;5029870;28;20221;-83
2021/03/07 01:11:40;;;;;;;0.70;0.37;;;1.00;99.90;;;;;;5028119;28;20196;-83
2021/03/07 01:14:06;;;;;;;2.30;0.40;;;1.00;99.90;;;;;;5045840;28;20194;-83
2021/03/07 01:16:32;;;;;;;3.13;0.60;;;1.00;99.90;;;;;;5029472;28;20197;-83
2021/03/07 01:18:57;;;;;;;0.20;0.20;;;0.90;99.90;;;;;;5030990;28;20190;-83
2021/03/07 01:21:23;;;;;;;0.17;0.17;;;0.90;99.90;;;;;;5030636;28;20186;-83
2021/03/07 01:23:49;;;;;;;0.30;0.30;;;0.80;99.90;;;;;;5028363;28;20221;-83
2021/03/07 01:26:15;;;;;;;0.10;0.10;;;0.40;99.90;;;;;;5031028;28;20191;-83
2021/03/07 01:28:40;;;;;;;0.33;0.33;;;0.00;99.90;;;;;;5024690;28;20250;-83
2021/03/07 01:31:06;;;;;;;0.17;0.17;;;0.00;99.90;;;;;;5029905;28;20244;-83
2021/03/07 01:33:31;;;;;;;0.10;0.10;;;0.00;99.90;;;;;;5045831;28;20207;-82
2021/03/07 01:36:02;;;;;;;0.20;0.10;;;-0.10;99.90;;;;;;5029459;28;20180;-83
2021/03/07 01:38:29;;;;;;;0.20;0.20;;;0.10;99.90;;;;;;5029944;28;20725;-83
2021/03/07 01:40:55;;;;;;;0.10;0.10;;;0.10;99.90;;;;;;5029793;28;20218;-83
2021/03/07 01:43:22;;;;;;;0.10;0.10;;;0.30;99.90;;;;;;5042528;28;20219;-83
2021/03/07 01:45:47;;;;;;;0.10;0.10;;;0.30;99.90;;;;;;5029545;28;20198;-83
2021/03/07 01:48:14;;;;;;;0.00;0.00;;;0.30;99.90;;;;;;5030651;28;20206;-83
2021/03/07 01:50:44;;;;;;;0.10;0.10;;;0.40;99.90;;;;;;5028609;28;20214;-82
2021/03/07 01:53:10;;;;;;;0.10;0.10;;;0.40;99.90;;;;;;5030233;28;20694;-82
2021/03/07 01:55:37;;;;;;;0.37;0.30;;;0.40;99.90;;;;;;5022159;28;20190;-83
2021/03/07 01:58:09;;;;;;;0.10;0.10;;;0.50;99.90;;;;;;5033454;28;20286;-83
2021/03/07 02:00:36;;;;;;;0.10;0.10;;;0.50;99.90;;;;;;5034431;28;20194;-83
2021/03/07 02:03:02;;;;;;;0.20;0.20;;;0.50;99.90;;;;;;5033768;28;20210;-83
2021/03/07 02:05:28;;;;;;;0.10;0.10;;;0.50;99.90;;;;;;5034096;28;20185;-83
2021/03/07 02:07:54;;;;;;;0.10;0.10;;;0.40;99.90;;;;;;5033031;28;20238;-83
2021/03/07 02:10:24;;;;;;;0.10;0.10;;;0.20;99.90;;;;;;5046944;28;20706;-83
2021/03/07 02:12:52;;;;;;;0.10;0.10;;;0.10;99.90;;;;;;5033490;28;20305;-83
2021/03/07 02:15:19;;;;;;;0.00;0.00;;;0.00;99.90;;;;;;5033403;28;20182;-83
2021/03/07 02:17:47;;;;;;;0.00;0.00;;;-0.10;99.90;;;;;;5033254;28;20206;-83
2021/03/07 02:20:17;;;;;;;0.20;0.20;;;-0.20;99.90;;;;;;5033491;28;20217;-83
2021/03/07 02:22:52;;;;;;;0.00;0.00;;;-0.20;99.90;;;;;;5031054;28;20302;-83
2021/03/07 02:25:18;;;;;;;0.00;0.00;;;-0.10;99.90;;;;;;5049515;28;20186;-82
2021/03/07 02:27:46;;;;;;;0.00;0.00;;;0.00;99.90;;;;;;5034140;28;20206;-83
2021/03/07 02:30:13;;;;;;;0.00;0.00;;;0.10;99.90;;;;;;5027933;28;20604;-83
2021/03/07 02:32:45;;;;;;;0.10;0.10;;;0.10;99.90;;;;;;5048741;28;20207;-83
2021/03/07 02:35:22;;;;;;;0.00;0.00;;;0.00;99.90;;;;;;5033682;28;20953;-83
2021/03/07 02:37:52;;;;;;;0.10;0.10;;;0.00;99.90;;;;;;5039759;28;20198;-83
2021/03/07 02:40:21;;;;;;;0.10;0.10;;;-0.10;99.90;;;;;;5034281;28;20197;-81
2021/03/07 02:42:49;;;;;;;0.20;0.20;;;-0.30;99.90;;;;;;5032117;28;20595;-84
2021/03/07 02:45:21;;;;;;;0.17;0.17;;;-0.50;99.90;;;;;;5050589;28;20190;-84
2021/03/07 02:47:50;;;;;;;0.20;0.13;;;-0.50;99.90;;;;;;5050495;28;20306;-83
2021/03/07 02:50:24;;;;;;;0.63;0.30;;;-0.60;99.90;;;;;;5028636;28;20208;-83
2021/03/07 02:53:00;;;;;;;0.10;0.10;;;-0.60;99.90;;;;;;5032458;28;20214;-83
2021/03/07 02:55:29;;;;;;;0.27;0.23;;;-0.60;99.90;;;;;;5033410;28;20626;-83
2021/03/07 02:57:59;;;;;;;0.10;0.10;;;-0.60;99.90;;;;;;5050093;28;20449;-82
2021/03/07 03:00:26;;;;;;;0.67;0.67;;;-0.60;99.90;;;;;;5034802;28;20191;-83
2021/03/07 03:02:54;;;;;;;0.30;0.30;;;-0.60;99.90;;;;;;5032179;28;20333;-83
2021/03/07 03:05:21;;;;;;;0.20;0.20;;;-0.60;99.90;;;;;;5033046;28;20561;-83
2021/03/07 03:07:46;;;;;;;0.20;0.20;;;-0.50;99.90;;;;;;5034152;28;20216;-82
2021/03/07 03:10:13;;;;;;;0.20;0.20;;;-0.50;99.90;;;;;;5048807;28;20265;-82
2021/03/07 03:12:41;;;;;;;0.10;0.10;;;-0.60;99.90;;;;;;5049415;28;20690;-83
2021/03/07 03:15:09;;;;;;;0.10;0.10;;;-0.60;99.90;;;;;;5031989;28;20270;-82
2021/03/07 03:17:37;;;;;;;0.10;0.10;;;-0.60;99.90;;;;;;5033314;28;20202;-83
2021/03/07 03:20:07;;;;;;;0.10;0.10;;;-0.60;99.90;;;;;;5025557;28;20209;-82
2021/03/07 03:22:33;;;;;;;0.10;0.10;;;-0.60;99.90;;;;;;5032877;28;20753;-83
2021/03/07 03:24:59;;;;;;;0.97;0.97;;;-0.60;99.90;;;;;;5034046;28;20187;-83
2021/03/07 03:27:25;;;;;;;0.50;0.50;;;-0.70;99.90;;;;;;5033512;28;20220;-83
2021/03/07 03:29:50;;;;;;;0.50;0.30;;;-0.60;99.90;;;;;;5032151;28;20190;-83
2021/03/07 03:32:16;;;;;;;0.30;0.17;;;-0.60;99.90;;;;;;5032035;28;20294;-83
2021/03/07 03:34:42;;;;;;;0.10;0.10;;;-0.50;99.90;;;;;;5033360;28;20186;-83
2021/03/07 03:37:07;;;;;;;0.10;0.10;;;-0.50;99.90;;;;;;5032730;28;20180;-82
2021/03/07 03:39:34;;;;;;;0.10;0.10;;;-0.40;99.90;;;;;;5031370;28;20327;-81
2021/03/07 03:42:04;;;;;;;2.23;0.20;;;-0.40;99.90;;;;;;5048799;28;20198;-83
2021/03/07 03:44:33;;;;;;;0.30;0.30;;;-0.30;99.90;;;;;;5022422;28;20178;-81
2021/03/07 03:47:01;;;;;;;0.10;0.10;;;-0.30;99.90;;;;;;5032916;28;20185;-82
2021/03/07 03:49:51;;;;;;;0.20;0.20;;;-0.30;99.90;;;;;;5030961;28;20207;-82
2021/03/07 03:52:18;;;;;;;0.60;0.60;;;-0.20;99.90;;;;;;5022332;28;20229;-83
2021/03/07 03:54:59;;;;;;;0.13;0.13;;;-0.30;99.90;;;;;;5033002;28;20557;-83
2021/03/07 03:57:30;;;;;;;0.10;0.10;;;-0.20;99.90;;;;;;5018458;28;20183;-83
2021/03/07 03:59:59;;;;;;;0.40;0.40;;;-0.20;99.90;;;;;;5030193;28;20430;-82
2021/03/07 04:02:25;;;;;;;0.20;0.20;;;-0.20;99.90;;;;;;5021730;28;20230;-83
2021/03/07 04:04:54;;;;;;;0.27;0.27;;;-0.10;99.90;;;;;;5023706;28;20190;-83
2021/03/07 04:07:21;;;;;;;0.10;0.10;;;-0.10;99.90;;;;;;5047637;28;20197;-83
2021/03/07 04:09:47;;;;;;;0.10;0.10;;;-0.10;99.90;;;;;;5031557;28;20194;-82
2021/03/07 04:12:13;;;;;;;1.40;0.20;;;0.00;99.90;;;;;;5031440;28;20218;-83
2021/03/07 04:14:39;;;;;;;0.17;0.17;;;0.00;99.90;;;;;;5031854;28;20674;-83
2021/03/07 04:17:05;;;;;;;0.17;0.17;;;0.00;99.90;;;;;;5021907;28;20569;-83
2021/03/07 04:19:33;;;;;;;0.10;0.10;;;0.00;99.90;;;;;;5022542;28;20281;-82
2021/03/07 04:22:00;;;;;;;0.10;0.10;;;-0.10;99.90;;;;;;5022520;28;20932;-83
2021/03/07 04:24:26;;;;;;;0.20;0.20;;;-0.20;99.90;;;;;;5031786;28;20180;-83
2021/03/07 04:26:52;;;;;;;0.10;0.10;;;-0.30;99.90;;;;;;5030732;28;20600;-84
2021/03/07 04:29:18;;;;;;;0.43;0.33;;;-0.40;99.90;;;;;;5029541;28;20648;-82
2021/03/07 04:31:45;;;;;;;0.10;0.10;;;-0.40;99.90;;;;;;5029330;28;20180;-82
2021/03/07 04:34:10;;;;;;;0.10;0.10;;;-0.50;99.90;;;;;;5034060;28;20192;-82
2021/03/07 04:36:36;;;;;;;0.73;0.37;;;-0.40;99.90;;;;;;5030347;28;20272;-82
2021/03/07 04:39:04;;;;;;;0.10;0.10;;;-0.40;99.90;;;;;;5045515;28;20187;-82
2021/03/07 04:41:29;;;;;;;0.20;0.20;;;-0.40;99.90;;;;;;5028687;28;20183;-80
2021/03/07 04:43:58;;;;;;;0.10;0.10;;;-0.40;99.90;;;;;;5019140;28;20202;-82
2021/03/07 04:46:25;;;;;;;0.10;0.10;;;-0.30;99.90;;;;;;5044931;28;20210;-82
2021/03/07 04:48:52;;;;;;;0.10;0.10;;;-0.40;99.90;;;;;;5031265;28;20244;-82
2021/03/07 04:51:18;;;;;;;0.10;0.10;;;-0.40;99.90;;;;;;5033289;28;20652;-82
2021/03/07 04:53:44;;;;;;;0.10;0.10;;;-0.40;99.90;;;;;;5029397;28;20198;-82
2021/03/07 04:56:10;;;;;;;0.10;0.10;;;-0.30;99.90;;;;;;5036217;28;20193;-81
2021/03/07 04:58:36;;;;;;;0.77;0.77;;;-0.30;99.90;;;;;;5030756;28;20275;-82
2021/03/07 05:01:03;;;;;;;0.83;0.60;;;-0.50;99.90;;;;;;5027457;28;20257;-82
2021/03/07 05:03:29;;;;;;;0.73;0.30;;;-0.30;99.90;;;;;;5027102;28;20755;-82
2021/03/07 05:05:55;;;;;;;0.77;0.60;;;-0.10;99.90;;;;;;5024163;28;20270;-82
2021/03/07 05:08:20;;;;;;;4.23;0.50;;;-0.10;99.90;;;;;;5029162;28;20210;-82
2021/03/07 05:10:46;;;;;;;0.40;0.37;;;-0.20;99.90;;;;;;5024993;28;21094;-81
2021/03/07 05:13:11;;;;;;;0.50;0.50;;;-0.30;99.90;;;;;;5019774;28;20217;-82
2021/03/07 05:15:40;;;;;;;0.20;0.20;;;-0.30;99.90;;;;;;5024909;28;20194;-81
2021/03/07 05:18:06;;;;;;;0.10;0.10;;;-0.40;99.90;;;;;;5045606;28;20269;-82
2021/03/07 05:20:32;;;;;;;0.37;0.37;;;-0.40;99.90;;;;;;5027441;28;21244;-82
2021/03/07 05:22:58;;;;;;;0.20;0.20;;;-0.50;99.90;;;;;;5024013;28;20209;-80
2021/03/07 05:25:24;;;;;;;0.20;0.20;;;-0.50;99.90;;;;;;5044152;28;20187;-82
2021/03/07 05:27:49;;;;;;;0.30;0.30;;;-0.50;99.90;;;;;;5029750;28;20292;-81
2021/03/07 05:30:15;;;;;;;0.07;0.07;;;-0.50;99.90;;;;;;5023850;28;20182;-82
2021/03/07 05:32:41;;;;;;;0.10;0.10;;;-0.50;99.90;;;;;;5026852;28;20198;-82
2021/03/07 05:35:07;;;;;;;0.10;0.10;;;-0.50;99.90;;;;;;5028488;28;20229;-82
2021/03/07 05:37:33;;;;;;;0.10;0.10;;;-0.50;99.90;;;;;;5028386;28;20213;-81
2021/03/07 05:39:58;;;;;;;0.10;0.10;;;-0.50;99.90;;;;;;5037508;28;20190;-82
2021/03/07 05:42:24;;;;;;;0.10;0.10;;;-0.60;99.90;;;;;;5026030;28;20203;-82
2021/03/07 05:44:50;;;;;;;0.10;0.10;;;-0.60;99.90;;;;;;5029216;28;20215;-81
2021/03/07 05:47:18;;;;;;;0.10;0.10;;;-0.60;99.90;;;;;;5030681;28;20197;-81
2021/03/07 05:49:43;;;;;;;0.43;0.43;;;-0.60;99.90;;;;;;5025863;28;20247;-81
2021/03/07 05:52:10;;;;;;;0.20;0.20;;;-0.60;99.90;;;;;;5025213;28;20691;-82
2021/03/07 05:54:36;;;;;;;0.30;0.30;;;-0.60;99.90;;;;;;5025257;28;20228;-82
2021/03/07 05:57:03;;;;;;;0.20;0.20;;;-0.60;99.90;;;;;;5029974;28;20182;-81
2021/03/07 05:59:35;;;;;;;0.10;0.10;;;-0.50;99.90;;;;;;5043470;28;20211;-82
2021/03/07 06:02:02;;;;;;;0.33;0.33;;;-0.40;99.90;;;;;;5030203;28;20590;-81
2021/03/07 06:04:28;;;;;;;0.40;0.30;;;-0.40;99.90;;;;;;5032881;28;20180;-82
2021/03/07 06:06:54;;;;;;;0.10;0.10;;;-0.40;99.90;;;;;;5030140;28;20189;-82
2021/03/07 06:09:27;;;;;;;0.20;0.20;;;-0.40;99.90;;;;;;5046733;28;20207;-82
2021/03/07 06:11:54;;;;;;;0.37;0.37;;;-0.30;99.90;;;;;;5021419;28;20276;-82
2021/03/07 06:14:24;;;;;;;0.13;0.13;;;-0.30;99.90;;;;;;5030956;28;20213;-83
2021/03/07 06:17:07;;;;;;;0.00;0.00;;;-0.30;99.90;;;;;;5037107;28;20201;-82
2021/03/07 06:19:55;;;;;;;0.10;0.10;;;-0.20;99.90;;;;;;5030446;28;20186;-82
2021/03/07 06:22:21;;;;;;;0.10;0.10;;;-0.20;99.90;;;;;;5031038;28;20202;-84
2021/03/07 06:24:47;;;;;;;0.10;0.10;;;-0.10;99.90;;;;;;5030587;28;20194;-83
2021/03/07 06:27:17;;;;;;;0.20;0.20;;;-0.10;99.90;;;;;;5029919;28;20182;-83
2021/03/07 06:29:56;;;;;;;0.10;0.10;;;0.00;99.90;;;;;;5043650;28;20270;-82
2021/03/07 06:32:23;;;;;;;0.40;0.40;;;0.10;99.90;;;;;;5030017;28;20272;-82
2021/03/07 06:34:49;;;;;;;0.10;0.10;;;0.10;99.90;;;;;;5029122;28;20190;-82
2021/03/07 06:37:15;;;;;;;0.10;0.10;;;0.20;99.90;;;;;;5033480;28;20214;-82
2021/03/07 06:39:41;;;;;;;0.10;0.10;;;0.30;99.90;;;;;;5029695;28;20193;-82
2021/03/07 06:42:09;;;;;;;0.20;0.20;;;0.30;99.90;;;;;;5031748;28;20578;-82
2021/03/07 06:44:37;;;;;;;0.20;0.20;;;0.40;99.90;;;;;;5040693;28;20281;-82
2021/03/07 06:47:11;;;;;;;0.03;0.03;;;0.50;99.90;;;;;;5032936;28;20666;-82
2021/03/07 06:49:37;;;;;;;0.20;0.20;;;0.50;99.90;;;;;;5048107;28;20187;-82
2021/03/07 06:52:17;;;;;;;0.10;0.10;;;0.60;99.90;;;;;;5032362;28;20194;-82
2021/03/07 06:55:02;;;;;;;0.07;0.07;;;0.70;99.90;;;;;;5023833;28;20214;-82
2021/03/07 06:57:29;;;;;;;0.30;0.30;;;0.60;99.90;;;;;;5040358;28;20206;-82
2021/03/07 06:59:55;;;;;;;0.00;0.00;;;0.80;99.90;;;;;;5030586;28;20186;-83
2021/03/07 07:02:20;;;;;;;0.30;0.20;;;1.00;99.90;;;;;;5041394;28;20283;-82
2021/03/07 07:04:46;;;;;;;1.20;0.30;;;1.10;99.90;;;;;;5031303;28;20358;-82
2021/03/07 07:07:17;;;;;;;0.37;0.37;;;1.30;99.90;;;;;;5032015;28;20691;-83
2021/03/07 07:09:55;;;;;;;0.83;0.20;;;1.50;99.90;;;;;;5030645;28;20285;-83
2021/03/07 07:12:24;;;;;;;0.03;0.03;;;1.70;99.90;;;;;;5032117;28;21811;-83
2021/03/07 07:14:51;;;;;;;0.00;0.00;;;1.90;99.90;;;;;;5031445;28;20191;-82
2021/03/07 07:17:20;;;;;;;0.10;0.10;;;2.00;99.90;;;;;;5032017;28;20270;-82
2021/03/07 07:19:47;;;;;;;0.10;0.10;;;2.20;99.90;;;;;;5031404;28;20550;-82
2021/03/07 07:22:14;;;;;;;0.00;0.00;;;2.30;99.90;;;;;;5030693;28;20233;-83
2021/03/07 07:24:41;;;;;;;0.20;0.20;;;2.40;99.90;;;;;;5031124;28;20197;-82
2021/03/07 07:27:06;;;;;;;0.30;0.30;;;2.60;99.90;;;;;;5029464;28;20192;-82
2021/03/07 07:29:36;;;;;;;0.10;0.10;;;2.70;99.90;;;;;;5027422;28;20229;-82
2021/03/07 07:32:28;;;;;;;0.20;0.20;;;2.80;99.90;;;;;;5039457;28;20203;-82
2021/03/07 07:35:01;;;;;;;0.10;0.10;;;3.00;99.90;;;;;;5032025;28;20183;-82
2021/03/07 07:37:38;;;;;;;0.10;0.10;;;3.20;99.90;;;;;;5030807;28;20323;-83
2021/03/07 07:40:05;;;;;;;0.67;0.40;;;3.30;99.90;;;;;;5044930;28;20229;-82
2021/03/07 07:42:34;;;;;;;0.20;0.20;;;3.50;99.90;;;;;;5047606;28;20612;-82
2021/03/07 07:45:19;;;;;;;0.10;0.10;;;3.60;99.90;;;;;;5033174;28;20199;-82
2021/03/07 07:47:50;;;;;;;0.80;0.70;;;3.80;99.90;;;;;;5040633;28;20202;-80
2021/03/07 07:50:31;;;;;;;2.23;0.27;;;3.80;99.90;;;;;;5031890;28;20189;-80
2021/03/07 07:53:12;;;;;;;0.00;0.00;;;4.00;99.90;;;;;;5035305;28;20601;-81
2021/03/07 07:55:44;;;;;;;0.03;0.03;;;4.10;99.90;;;;;;5028440;28;20214;-78
2021/03/07 07:58:10;;;;;;;0.20;0.20;;;4.20;99.90;;;;;;5021259;28;20188;-79
2021/03/07 08:00:50;;;;;;;0.13;0.13;;;4.30;99.90;;;;;;5030604;28;20241;-80
2021/03/07 08:03:41;;;;;;;0.20;0.20;;;4.30;99.90;;;;;;5029352;28;20205;-80
2021/03/07 08:06:12;;;;;;;0.60;0.30;;;4.20;99.90;;;;;;5044000;28;20541;-80
2021/03/07 08:08:40;;;;;;;0.20;0.10;;;4.30;99.90;;;;;;5032151;28;20217;-80
2021/03/07 08:11:07;;;;;;;0.10;0.10;;;4.30;99.90;;;;;;5032569;28;20185;-83
2021/03/07 08:13:35;;;;;;;0.20;0.20;;;4.40;99.90;;;;;;5019890;28;20227;-83
2021/03/07 08:16:05;;;;;;;0.40;0.20;;;4.50;99.90;;;;;;5023928;28;20823;-83
2021/03/07 08:19:04;;;;;;;0.27;0.27;;;4.60;99.90;;;;;;5028832;28;20202;-82
2021/03/07 08:21:54;;;;;;;0.50;0.50;;;4.70;99.90;;;;;;4979792;28;20690;-80
2021/03/07 08:24:20;;;;;;;0.10;0.10;;;5.00;99.90;;;;;;5027644;28;20220;-80
2021/03/07 08:26:45;;;;;;;0.10;0.10;;;5.20;99.90;;;;;;5029617;28;20193;-80
2021/03/07 08:29:39;;;;;;;0.10;0.10;;;5.30;99.90;;;;;;5034667;28;20215;-80
2021/03/07 08:32:24;;;;;;;0.10;0.10;;;5.50;99.90;;;;;;5024415;28;20228;-78
2021/03/07 08:34:50;;;;;;;0.10;0.10;;;5.80;99.90;;;;;;5031036;28;20182;-80
2021/03/07 08:37:16;;;;;;;0.10;0.10;;;5.90;99.90;;;;;;5047155;28;20193;-80
2021/03/07 08:39:41;;;;;;;0.60;0.60;;;6.10;99.90;;;;;;5032158;28;20185;-79
2021/03/07 08:42:07;;;;;;;0.67;0.60;;;6.20;99.90;;;;;;5030125;28;20205;-80
2021/03/07 08:44:33;;;;;;;0.20;0.20;;;6.20;99.90;;;;;;5028766;28;20186;-78
2021/03/07 08:46:59;;;;;;;0.33;0.33;;;6.40;99.90;;;;;;5047461;28;20233;-79
2021/03/07 08:49:30;;;;;;;0.40;0.40;;;6.60;99.90;;;;;;5030621;28;20415;-82
2021/03/07 08:52:03;;;;;;;0.10;0.10;;;6.70;99.90;;;;;;5029152;28;20280;-80
2021/03/07 08:54:31;;;;;;;0.10;0.10;;;6.90;99.90;;;;;;5040136;28;20685;-83
2021/03/07 08:57:03;;;;;;;0.17;0.17;;;7.10;99.90;;;;;;5031486;28;20179;-81
2021/03/07 08:59:29;;;;;;;0.70;0.70;;;7.30;99.90;;;;;;5024969;28;20178;-79
2021/03/07 09:01:55;;;;;;;0.23;0.10;;;7.10;99.90;;;;;;5028526;28;21049;-80
2021/03/07 09:04:21;;;;;;;0.20;0.20;;;6.90;99.90;;;;;;5039949;28;20260;-79
2021/03/07 09:06:48;;;;;;;0.10;0.10;;;7.10;99.90;;;;;;5025432;28;20674;-80
2021/03/07 09:09:21;;;;;;;0.40;0.20;;;7.30;99.90;;;;;;5021445;28;20205;-79
2021/03/07 09:11:48;;;;;;;0.10;0.10;;;7.50;99.90;;;;;;5017518;28;20224;-83
2021/03/07 09:14:14;;;;;;;0.23;0.23;;;7.70;99.90;;;;;;5034526;28;20175;-80
2021/03/07 09:16:42;;;;;;;0.40;0.30;;;7.70;99.90;;;;;;5023502;28;20270;-80
2021/03/07 09:19:38;;;;;;;0.67;0.67;;;7.90;99.90;;;;;;5028950;28;20471;-81
2021/03/07 09:22:11;;;;;;;0.33;0.33;;;7.90;99.90;;;;;;5028466;28;20223;-80
2021/03/07 09:24:37;;;;;;;0.87;0.60;;;8.10;99.90;;;;;;5019785;28;20182;-82
2021/03/07 09:27:11;;;;;;;1.10;0.43;;;8.10;99.90;;;;;;5031578;28;20337;-81
2021/03/07 09:29:50;;;;;;;0.60;0.57;;;8.30;99.90;;;;;;5025759;28;20227;-83
2021/03/07 09:32:29;;;;;;;0.10;0.10;;;7.40;99.90;;;;;;5041554;28;20205;-82
2021/03/07 09:34:56;;;;;;;0.30;0.30;;;7.50;99.90;;;;;;5028150;28;20194;-83
2021/03/07 09:37:23;;;;;;;0.10;0.10;;;7.50;99.90;;;;;;5029731;28;20181;-83
2021/03/07 09:39:50;;;;;;;0.20;0.20;;;7.80;99.90;;;;;;5026218;28;20186;-82
2021/03/07 09:42:17;;;;;;;0.10;0.10;;;8.00;99.90;;;;;;5023871;28;20565;-82
2021/03/07 09:44:44;;;;;;;0.77;0.10;;;8.10;99.90;;;;;;5036135;28;20180;-82
2021/03/07 09:47:09;;;;;;;0.23;0.20;;;8.30;99.90;;;;;;5032470;28;20661;-82
2021/03/07 09:49:36;;;;;;;0.10;0.10;;;8.10;99.90;;;;;;5028780;28;20285;-84
2021/03/07 09:52:02;;;;;;;0.20;0.20;;;8.20;99.90;;;;;;5033384;28;20196;-79
2021/03/07 09:54:28;;;;;;;1.17;0.30;;;8.40;99.90;;;;;;5018674;28;20183;-80
2021/03/07 09:56:55;;;;;;;0.57;0.57;;;8.60;99.90;;;;;;5023828;28;20185;-80
2021/03/07 09:59:32;;;;;;;0.30;0.30;;;8.80;99.90;;;;;;5034621;28;20251;-81
2021/03/07 10:02:00;;;;;;;0.77;0.10;;;8.80;99.90;;;;;;5026866;28;20206;-83
2021/03/07 10:04:28;;;;;;;0.20;0.20;;;9.00;99.90;;;;;;5027844;28;20188;-83
2021/03/07 10:06:54;;;;;;;1.33;0.40;;;9.20;99.90;;;;;;5021478;28;20228;-83
2021/03/07 10:09:19;;;;;;;0.20;0.20;;;8.50;99.90;;;;;;5023512;28;20204;-83
2021/03/07 10:12:00;;;;;;;0.20;0.20;;;8.00;99.90;;;;;;5029711;28;20193;-84
2021/03/07 10:14:31;;;;;;;0.40;0.33;;;8.40;99.90;;;;;;5018145;28;20182;-84
2021/03/07 10:16:58;;;;;;;0.43;0.17;;;7.80;99.90;;;;;;5019137;28;20183;-84
2021/03/07 10:19:34;;;;;;;0.70;0.30;;;7.90;99.90;;;;;;5023855;28;20184;-83
2021/03/07 10:22:03;;;;;;;0.50;0.50;;;8.00;99.90;;;;;;5024776;28;20207;-84
2021/03/07 10:24:31;;;;;;;0.60;0.60;;;8.50;99.90;;;;;;5031122;28;20191;-84
2021/03/07 10:27:02;;;;;;;0.33;0.33;;;8.60;99.90;;;;;;5023747;28;20188;-84
2021/03/07 10:29:33;;;;;;;0.97;0.97;;;8.60;99.90;;;;;;5031624;28;20209;-81
2021/03/07 10:32:05;;;;;;;2.23;0.50;;;8.70;99.90;;;;;;5032627;28;20202;-81
2021/03/07 10:34:38;;;;;;;0.30;0.30;;;9.00;99.90;;;;;;5041143;28;20182;-82
2021/03/07 10:37:05;;;;;;;0.20;0.20;;;9.30;99.90;;;;;;5024123;28;20662;-81
2021/03/07 10:39:31;;;;;;;0.70;0.43;;;9.60;99.90;;;;;;5055625;28;20569;-81
2021/03/07 10:42:11;;;;;;;0.37;0.37;;;9.30;99.90;;;;;;5039342;28;20209;-84
2021/03/07 10:44:40;;;;;;;0.27;0.27;;;9.50;99.90;;;;;;5029620;28;20284;-85
2021/03/07 10:47:13;;;;;;;0.13;0.13;;;9.40;99.90;;;;;;5037795;28;20195;-84
2021/03/07 10:49:39;;;;;;;0.63;0.53;;;9.60;99.90;;;;;;5036759;28;20202;-85
2021/03/07 10:52:05;;;;;;;0.20;0.20;;;9.30;99.90;;;;;;5036926;28;20209;-84
2021/03/07 10:54:31;;;;;;;0.50;0.50;;;9.50;99.90;;;;;;5027093;28;20192;-84
2021/03/07 10:56:56;;;;;;;1.17;0.40;;;9.60;99.90;;;;;;5025125;28;20178;-84
2021/03/07 10:59:23;;;;;;;1.80;0.50;;;9.80;99.90;;;;;;5031276;28;20219;-82
2021/03/07 11:01:49;;;;;;;0.10;0.10;;;9.90;99.90;;;;;;5049355;28;20187;-84
2021/03/07 11:04:14;;;;;;;0.93;0.50;;;10.00;99.90;;;;;;5036451;28;20192;-83
2021/03/07 11:06:40;;;;;;;0.60;0.40;;;9.60;99.90;;;;;;5051242;28;20676;-84
2021/03/07 11:09:05;;;;;;;0.37;0.37;;;9.60;99.90;;;;;;5026659;28;20218;-83
2021/03/07 11:11:34;;;;;;;0.67;0.30;;;9.50;99.90;;;;;;5036821;28;20190;-83
2021/03/07 11:14:00;;;;;;;0.77;0.77;;;9.90;99.90;;;;;;5046191;28;20250;-84
2021/03/07 11:16:25;;;;;;;1.60;0.20;;;10.10;99.90;;;;;;5047530;28;20879;-83
2021/03/07 11:18:51;;;;;;;0.10;0.10;;;10.20;99.90;;;;;;5032281;28;20280;-83
2021/03/07 11:21:17;;;;;;;0.10;0.10;;;10.30;99.90;;;;;;5033060;28;20193;-82
2021/03/07 11:23:42;;;;;;;0.57;0.57;;;10.10;99.90;;;;;;5034479;28;20665;-84
2021/03/07 11:26:08;;;;;;;0.20;0.20;;;10.10;99.90;;;;;;5034322;28;20704;-84
2021/03/07 11:28:33;;;;;;;0.30;0.27;;;10.30;99.90;;;;;;5031772;28;20208;-84
2021/03/07 11:30:59;;;;;;;0.40;0.40;;;10.30;99.90;;;;;;5035615;28;20192;-84
2021/03/07 11:33:25;;;;;;;0.20;0.20;;;10.00;99.90;;;;;;5033790;28;20210;-82
2021/03/07 11:35:51;;;;;;;0.20;0.20;;;9.70;99.90;;;;;;5031664;28;20236;-84
2021/03/07 11:38:17;;;;;;;0.23;0.23;;;10.00;99.90;;;;;;5044846;28;20192;-84
2021/03/07 11:40:42;;;;;;;0.43;0.30;;;10.20;99.90;;;;;;5027832;28;20236;-84
2021/03/07 11:43:08;;;;;;;0.43;0.20;;;9.90;99.90;;;;;;5029787;28;20332;-84
2021/03/07 11:45:34;;;;;;;0.30;0.30;;;10.10;99.90;;;;;;5030234;28;20189;-84
2021/03/07 11:47:59;;;;;;;0.40;0.40;;;10.30;99.90;;;;;;5042711;28;20218;-83
2021/03/07 11:50:25;;;;;;;0.20;0.20;;;10.30;99.90;;;;;;5030273;28;20273;-83
2021/03/07 11:52:50;;;;;;;0.30;0.23;;;8.90;99.90;;;;;;5034472;28;21244;-84
2021/03/07 11:55:16;;;;;;;0.80;0.80;;;8.60;99.90;;;;;;5032272;28;20569;-85
2021/03/07 11:57:42;;;;;;;0.73;0.73;;;8.40;99.90;;;;;;5034676;28;20195;-85
2021/03/07 12:00:09;;;;;;;0.30;0.30;;;8.30;99.90;;;;;;5034795;28;20193;-86
2021/03/07 12:02:34;;;;;;;0.50;0.50;;;9.00;99.90;;;;;;5031143;28;20239;-86
2021/03/07 12:05:02;;;;;;;0.20;0.20;;;9.60;99.90;;;;;;5046936;28;20188;-85
2021/03/07 12:07:27;;;;;;;0.30;0.30;;;9.70;99.90;;;;;;5032829;28;20195;-86
2021/03/07 12:09:54;;;;;;;0.10;0.10;;;9.70;99.90;;;;;;5034484;28;20195;-87
2021/03/07 12:12:19;;;;;;;0.60;0.60;;;9.60;99.90;;;;;;5035536;28;20304;-86
2021/03/07 12:14:45;;;;;;;0.50;0.50;;;10.00;99.90;;;;;;5033683;28;20228;-85
2021/03/07 12:17:11;;;;;;;0.13;0.13;;;10.40;99.90;;;;;;5036301;28;20191;-85
2021/03/07 12:19:37;;;;;;;0.23;0.20;;;10.70;99.90;;;;;;5035571;28;20190;-87
2021/03/07 12:22:02;;;;;;;0.80;0.50;;;10.40;99.90;;;;;;5033127;28;20235;-86
2021/03/07 12:24:31;;;;;;;0.67;0.40;;;10.50;99.90;;;;;;5031978;28;20548;-85
2021/03/07 12:27:04;;;;;;;0.63;0.57;;;10.60;99.90;;;;;;5033771;28;20197;-82
2021/03/07 12:29:38;;;;;;;0.77;0.57;;;11.00;99.90;;;;;;5034134;28;20613;-84
2021/03/07 12:32:04;;;;;;;0.40;0.40;;;9.90;99.90;;;;;;5035427;28;20292;-88
2021/03/07 12:34:31;;;;;;;0.10;0.10;;;9.70;99.90;;;;;;5036699;28;20184;-85
2021/03/07 12:36:57;;;;;;;0.40;0.40;;;9.80;99.90;;;;;;5036081;28;20269;-85
2021/03/07 12:39:23;;;;;;;0.27;0.27;;;9.90;99.90;;;;;;5049782;28;20232;-85
2021/03/07 12:41:48;;;;;;;0.30;0.20;;;10.30;99.90;;;;;;5033017;28;20657;-87
2021/03/07 12:44:14;;;;;;;0.60;0.60;;;10.70;99.90;;;;;;5033783;28;20194;-84
2021/03/07 12:46:40;;;;;;;0.63;0.40;;;11.00;99.90;;;;;;5036153;28;20186;-84
2021/03/07 12:49:08;;;;;;;0.20;0.20;;;10.20;99.90;;;;;;5044798;28;20209;-85
2021/03/07 12:51:35;;;;;;;0.10;0.10;;;9.90;99.90;;;;;;5049220;28;20235;-83
2021/03/07 12:54:00;;;;;;;0.27;0.27;;;10.50;99.90;;;;;;5036277;28;20194;-83
2021/03/07 12:56:26;;;;;;;0.73;0.63;;;10.90;99.90;;;;;;5050123;28;20181;-82
2021/03/07 12:58:52;;;;;;;0.20;0.20;;;11.10;99.90;;;;;;5033877;28;20193;-83